page 5835 of 1011502 registered users

eBook PostsUsers

  1. 0relishdigger6 registered @ 2013-02-06 18:22:37, last login @ 2013-02-06 18:22:37
  2. 0bankspleen3 registered @ 2013-02-06 18:23:46, last login @ 2013-02-06 18:23:46
  3. 0fork15barber registered @ 2013-02-06 18:24:56, last login @ 2013-02-06 18:24:56
  4. 0crab58quartz registered @ 2013-02-06 18:25:34, last login @ 2013-02-06 18:25:34
  5. 0babies36gender registered @ 2013-02-06 18:25:40, last login @ 2013-02-06 18:55:22
  6. 0lotionbranch1 registered @ 2013-02-06 18:27:09, last login @ 2013-02-06 18:27:09
  7. 0sing49parrot registered @ 2013-02-06 18:33:17, last login @ 2013-02-06 18:33:17
  8. 0butter6bobcat registered @ 2013-02-06 18:34:14, last login @ 2013-02-06 18:34:14
  9. 0shoetongue63 registered @ 2013-02-06 18:35:04, last login @ 2013-02-06 18:35:04
  10. 0pigcinema4 registered @ 2013-02-06 18:35:22, last login @ 2013-02-06 18:35:22
  11. 0owner57fear registered @ 2013-02-06 18:35:35, last login @ 2013-02-06 18:35:35
  12. 0temperbarge4 registered @ 2013-02-06 18:35:56, last login @ 2013-02-06 18:35:56
  13. 0skyvid registered @ 2013-02-06 18:37:56, last login @ 2013-02-06 18:37:56
  14. 0bacon51client registered @ 2013-02-06 18:38:48, last login @ 2013-02-06 18:38:48
  15. 0johnopen84 registered @ 2013-02-06 18:39:22, last login @ 2013-02-06 18:39:22
  16. 0cross21drive registered @ 2013-02-06 18:40:05, last login @ 2013-02-06 18:40:05
  17. 0square46straw registered @ 2013-02-06 18:40:26, last login @ 2013-02-06 18:58:14
  18. 0brian29engine registered @ 2013-02-06 18:40:43, last login @ 2013-02-06 18:40:43
  19. 0robinrotate8 registered @ 2013-02-06 18:40:47, last login @ 2013-02-06 18:58:17
  20. 0join2curler registered @ 2013-02-06 18:41:48, last login @ 2013-02-06 18:41:48
  21. 0teller27bangle registered @ 2013-02-06 18:43:17, last login @ 2013-02-06 18:43:17
  22. 0taxidraw39 registered @ 2013-02-06 18:43:36, last login @ 2013-02-06 18:43:36
  23. 0song14cough registered @ 2013-02-06 18:43:53, last login @ 2013-02-06 18:43:53
  24. 0mimosashell11 registered @ 2013-02-06 18:44:00, last login @ 2013-02-06 18:44:00
  25. 0nancyjump99 registered @ 2013-02-06 18:44:19, last login @ 2013-02-06 18:44:19
  26. 0qkshaikh registered @ 2013-02-06 18:45:02, last login @ 2013-02-06 18:45:02
  27. 0grape9domain registered @ 2013-02-06 18:45:29, last login @ 2013-02-06 18:45:29
  28. 0nancydollar7 registered @ 2013-02-06 18:47:15, last login @ 2013-02-06 18:47:15
  29. 0steamwrench0 registered @ 2013-02-06 18:47:56, last login @ 2013-02-06 18:47:56
  30. 0rhythmbamboo3 registered @ 2013-02-06 18:50:31, last login @ 2013-02-06 18:50:31
  31. 0alloy91violet registered @ 2013-02-06 18:50:39, last login @ 2013-02-06 18:50:39
  32. 0viola7hill registered @ 2013-02-06 18:50:45, last login @ 2013-02-06 18:50:45
  33. 0Lawrencelark registered @ 2013-02-06 18:52:43, last login @ 2013-02-06 18:52:43
  34. 0dibble19sunday registered @ 2013-02-06 18:56:37, last login @ 2013-02-06 18:56:37
  35. 0bus1cell registered @ 2013-02-06 18:58:17, last login @ 2013-02-06 18:58:17
  36. 0maid46tuna registered @ 2013-02-06 18:58:59, last login @ 2013-02-06 18:58:59
  37. 0spain1bottom registered @ 2013-02-06 19:00:21, last login @ 2013-02-06 19:00:21
  38. 0advicesteven5 registered @ 2013-02-06 19:00:35, last login @ 2013-02-06 19:00:35
  39. 0bulb1bow registered @ 2013-02-06 19:00:43, last login @ 2013-02-06 19:00:43
  40. 0puma7ticket registered @ 2013-02-06 19:01:55, last login @ 2013-02-06 19:01:55
  41. 0purpleguide2 registered @ 2013-02-06 19:06:02, last login @ 2013-02-06 19:06:02
  42. 0nic4cake registered @ 2013-02-06 19:06:03, last login @ 2013-02-06 19:06:03
  43. 0back5birth registered @ 2013-02-06 19:06:39, last login @ 2013-02-06 19:51:05
  44. 0popecxyxlvhrv registered @ 2013-02-06 19:10:01, last login @ 2013-02-06 19:10:01
  45. 0india1epoch registered @ 2013-02-06 19:10:09, last login @ 2013-02-06 19:10:09
  46. 0heronsmile42 registered @ 2013-02-06 19:13:50, last login @ 2013-02-06 19:31:45
  47. 0basinflame46 registered @ 2013-02-06 19:14:44, last login @ 2013-02-06 19:14:44
  48. 0userock46 registered @ 2013-02-06 19:15:04, last login @ 2013-02-06 19:15:04
  49. 0mittenmoon9 registered @ 2013-02-06 19:15:53, last login @ 2013-02-06 19:15:53
  50. 0poisonmouse16 registered @ 2013-02-06 19:16:46, last login @ 2013-02-06 19:51:23
  51. 0yam97forest registered @ 2013-02-06 19:17:09, last login @ 2013-02-06 19:41:23
  52. 0hall4organ registered @ 2013-02-06 19:17:54, last login @ 2013-02-06 19:17:54
  53. 0dadclick39 registered @ 2013-02-06 19:17:59, last login @ 2013-02-06 19:53:57
  54. 0party2quilt registered @ 2013-02-06 19:18:50, last login @ 2013-02-06 19:18:50
  55. 0quiver0relish registered @ 2013-02-06 19:21:00, last login @ 2013-02-06 19:21:00
  56. 0nerve1crow registered @ 2013-02-06 19:21:31, last login @ 2013-02-06 19:21:31
  57. 0slash80dirt registered @ 2013-02-06 19:21:45, last login @ 2013-02-06 19:21:45
  58. 0buttondew22 registered @ 2013-02-06 19:22:02, last login @ 2013-02-06 19:22:02
  59. 0jeansspruce6 registered @ 2013-02-06 19:24:43, last login @ 2013-02-06 19:24:43
  60. 0magicjury2 registered @ 2013-02-06 19:25:11, last login @ 2013-02-06 19:25:11
  61. 0peanutbread01 registered @ 2013-02-06 19:25:21, last login @ 2013-02-06 19:25:21
  62. 0lungcredit69 registered @ 2013-02-06 19:25:40, last login @ 2013-02-06 19:25:40
  63. 0owner28cornet registered @ 2013-02-06 19:25:55, last login @ 2013-02-06 19:25:55
  64. 0dashbush2 registered @ 2013-02-06 19:26:39, last login @ 2013-02-06 19:26:39
  65. 0kitty55aries registered @ 2013-02-06 19:27:21, last login @ 2013-02-06 19:27:21
  66. 0food49pear registered @ 2013-02-06 19:28:32, last login @ 2013-02-06 19:28:32
  67. 0sherinmary registered @ 2013-02-06 19:28:48, last login @ 2013-02-06 19:28:48
  68. 0alarm6diving registered @ 2013-02-06 19:28:54, last login @ 2013-02-06 19:28:54
  69. 0office69yard registered @ 2013-02-06 19:30:05, last login @ 2013-02-06 19:30:05
  70. 0meat39cod registered @ 2013-02-06 19:30:22, last login @ 2013-02-06 19:30:22
  71. 0puffinprofit3 registered @ 2013-02-06 19:30:27, last login @ 2013-02-06 19:30:27
  72. 0border82play registered @ 2013-02-06 19:32:57, last login @ 2013-02-06 19:32:57
  73. 0seed21shears registered @ 2013-02-06 19:33:26, last login @ 2013-02-06 19:33:26
  74. 0fish87form registered @ 2013-02-06 19:33:44, last login @ 2013-02-06 19:33:44
  75. 0lynx63pillow registered @ 2013-02-06 19:35:54, last login @ 2013-02-06 19:35:54
  76. 0slipseeder2 registered @ 2013-02-06 19:35:54, last login @ 2013-02-06 19:35:54
  77. 0Chandankumar126 registered @ 2013-02-06 19:36:33, last login @ 2013-02-06 19:36:33
  78. 0gemininoodle57 registered @ 2013-02-06 19:37:13, last login @ 2013-02-06 19:37:13
  79. 0piewealth29 registered @ 2013-02-06 19:37:25, last login @ 2013-02-06 19:37:25
  80. 0oboesushi33 registered @ 2013-02-06 19:37:44, last login @ 2013-02-06 19:37:44
  81. 0khellow registered @ 2013-02-06 19:38:15, last login @ 2013-02-06 19:38:15
  82. 0Babytyson85 registered @ 2013-02-06 19:40:09, last login @ 2013-02-06 19:40:09
  83. 0magic5toy registered @ 2013-02-06 19:41:44, last login @ 2013-02-06 19:41:44
  84. 0hood88fog registered @ 2013-02-06 19:42:18, last login @ 2013-02-06 19:42:18
  85. 0cut8dahlia registered @ 2013-02-06 19:42:51, last login @ 2013-02-06 19:42:51
  86. 0tanker33router registered @ 2013-02-06 19:43:14, last login @ 2013-02-06 19:43:14
  87. 0order86straw registered @ 2013-02-06 19:44:11, last login @ 2013-02-06 19:44:11
  88. 0floormark1 registered @ 2013-02-06 19:45:53, last login @ 2013-02-06 19:45:53
  89. 0silveryoke36 registered @ 2013-02-06 19:47:09, last login @ 2013-02-06 19:47:09
  90. 0magic9pig registered @ 2013-02-06 19:47:27, last login @ 2013-02-06 19:47:27
  91. 0angerclass1 registered @ 2013-02-06 19:48:02, last login @ 2013-02-06 19:48:02
  92. 0glove4word registered @ 2013-02-06 19:49:02, last login @ 2013-02-06 19:49:02
  93. 0grilltop70 registered @ 2013-02-06 19:50:45, last login @ 2013-02-06 19:50:45
  94. 0daisyblock82 registered @ 2013-02-06 19:51:20, last login @ 2013-02-06 19:51:20
  95. 0phelan_stella143 registered @ 2013-02-06 19:52:27, last login @ 2013-02-06 19:52:27
  96. 0cheque7number registered @ 2013-02-06 19:52:51, last login @ 2013-02-06 19:52:51
  97. 0tubpastor1 registered @ 2013-02-06 19:54:03, last login @ 2013-02-06 19:54:03
  98. 0iswitchdrink47 registered @ 2013-02-06 19:55:59, last login @ 2013-02-06 19:55:59
  99. 0llama2beach registered @ 2013-02-06 19:58:15, last login @ 2013-02-06 19:58:15
  100. 0mariogarcia836 registered @ 2013-02-06 19:59:32, last login @ 2013-02-06 19:59:32
  101. 0selectburn8 registered @ 2013-02-06 20:00:16, last login @ 2013-02-06 20:00:16

More...

[5845] [5844] [5843] [5842] [5841] [5840] [5839] [5838] [5837] [5836] [5835] [5834] [5833] [5832] [5831] [5830] [5829] [5828] [5827] [5826] ...[1]
Back to Top